createdAt,value
2022-09-11T00:01:41.151Z,72.97
2022-09-11T00:04:10.288Z,73.12
2022-09-11T00:06:38.737Z,72.59
2022-09-11T00:09:07.950Z,72.49
2022-09-11T00:11:40.816Z,72.36
2022-09-11T00:14:10.328Z,72.33
2022-09-11T00:16:41.284Z,72.45
2022-09-11T00:19:11.907Z,71.92
2022-09-11T00:21:40.081Z,71.34
2022-09-11T00:24:10.127Z,71.47
2022-09-11T00:26:40.008Z,71.07
2022-09-11T00:29:08.168Z,71.64
2022-09-11T00:31:36.196Z,71.80
2022-09-11T00:34:04.302Z,72.16
2022-09-11T00:36:32.542Z,72.04
2022-09-11T00:39:01.266Z,72.69
2022-09-11T00:41:32.408Z,73.37
2022-09-11T00:44:04.278Z,73.70
2022-09-11T00:46:37.231Z,73.94
2022-09-11T00:49:15.982Z,74.31
2022-09-11T00:51:48.455Z,74.40
2022-09-11T00:54:21.132Z,74.68
2022-09-11T00:56:50.330Z,75.09
2022-09-11T00:59:25.295Z,75.37
2022-09-11T01:01:53.420Z,75.71
2022-09-11T01:04:23.116Z,75.93
2022-09-11T01:06:52.808Z,76.02
2022-09-11T01:09:21.097Z,76.30
2022-09-11T01:11:57.311Z,76.74
2022-09-11T01:14:39.371Z,77.27
2022-09-11T01:17:21.492Z,77.32
2022-09-11T01:20:17.396Z,78.11
2022-09-11T01:23:24.691Z,78.51
2022-09-11T01:26:26.705Z,78.94
2022-09-11T01:29:03.561Z,78.64
2022-09-11T01:31:41.639Z,78.21
2022-09-11T01:34:16.813Z,78.10
2022-09-11T01:36:51.044Z,78.29
2022-09-11T01:39:24.172Z,78.50
2022-09-11T01:42:01.725Z,78.00
2022-09-11T01:44:36.381Z,77.87
2022-09-11T01:47:10.756Z,77.72
2022-09-11T01:49:44.468Z,78.15
2022-09-11T01:52:17.048Z,78.05
2022-09-11T01:54:55.423Z,78.39
2022-09-11T01:57:28.760Z,78.06
2022-09-11T02:00:02.518Z,77.51
2022-09-11T02:02:36.922Z,77.58
2022-09-11T02:05:10.432Z,76.92
2022-09-11T02:07:46.145Z,76.93
2022-09-11T02:10:20.286Z,76.58
2022-09-11T02:12:56.254Z,77.47
2022-09-11T02:15:32.024Z,77.51
2022-09-11T02:18:05.664Z,77.40
2022-09-11T02:20:34.363Z,77.43
2022-09-11T02:23:03.093Z,77.07
2022-09-11T02:25:31.160Z,77.45
2022-09-11T02:27:59.402Z,77.61
2022-09-11T02:30:28.757Z,77.43
2022-09-11T02:32:57.216Z,77.51
2022-09-11T02:35:29.872Z,77.71
2022-09-11T02:38:10.025Z,77.77
2022-09-11T02:40:47.656Z,78.25
2022-09-11T02:43:34.086Z,78.22
2022-09-11T02:46:27.633Z,78.40
2022-09-11T02:49:08.556Z,78.47
2022-09-11T02:51:45.936Z,78.17
2022-09-11T02:54:25.722Z,77.69
2022-09-11T02:57:00.945Z,77.50
2022-09-11T02:59:37.366Z,77.31
2022-09-11T03:02:12.806Z,77.41
2022-09-11T03:04:41.978Z,77.44
2022-09-11T03:07:10.291Z,77.22
2022-09-11T03:09:39.100Z,77.29
2022-09-11T03:12:14.042Z,77.60
2022-09-11T03:14:41.952Z,77.63
2022-09-11T03:17:12.302Z,78.16
2022-09-11T03:19:40.277Z,78.21
2022-09-11T03:22:08.344Z,78.00
2022-09-11T03:24:36.263Z,77.76
2022-09-11T03:27:05.532Z,78.18
2022-09-11T03:29:33.683Z,78.49
2022-09-11T03:32:02.291Z,78.08
2022-09-11T03:34:32.154Z,76.96
2022-09-11T03:37:00.382Z,77.19
2022-09-11T03:39:29.360Z,77.16
2022-09-11T03:42:00.907Z,77.27
2022-09-11T03:44:29.525Z,76.98
2022-09-11T03:46:57.481Z,77.19
2022-09-11T03:49:26.065Z,76.79
2022-09-11T03:51:57.184Z,76.73
2022-09-11T03:54:25.200Z,77.44
2022-09-11T03:56:53.127Z,77.35
2022-09-11T03:59:21.765Z,77.35
2022-09-11T04:01:50.948Z,76.91
2022-09-11T04:04:19.517Z,76.84
2022-09-11T04:06:47.582Z,76.88
2022-09-11T04:09:17.328Z,76.42
2022-09-11T04:11:45.537Z,76.20
2022-09-11T04:14:22.585Z,76.14
2022-09-11T04:16:51.641Z,76.20
2022-09-11T04:19:21.405Z,76.45
2022-09-11T04:21:49.433Z,76.57
2022-09-11T04:24:19.015Z,76.89
2022-09-11T04:26:48.433Z,76.71
2022-09-11T04:29:24.262Z,76.44
2022-09-11T04:31:53.428Z,77.03
2022-09-11T04:34:25.392Z,77.00
2022-09-11T04:36:55.472Z,77.15
2022-09-11T04:39:25.552Z,76.46
2022-09-11T04:41:54.521Z,76.84
2022-09-11T04:44:22.948Z,76.97
2022-09-11T04:46:51.083Z,76.73
2022-09-11T04:49:20.345Z,76.90
2022-09-11T04:51:48.943Z,77.34
2022-09-11T04:54:21.220Z,77.03
2022-09-11T04:56:50.970Z,77.28
2022-09-11T04:59:22.441Z,76.73
2022-09-11T05:01:59.262Z,76.84
2022-09-11T05:04:29.092Z,77.41
2022-09-11T05:06:57.588Z,77.04
2022-09-11T05:09:27.643Z,77.46
2022-09-11T05:11:57.723Z,78.06
2022-09-11T05:14:30.142Z,77.67
2022-09-11T05:16:58.168Z,77.96
2022-09-11T05:19:30.474Z,77.51
2022-09-11T05:21:58.906Z,77.62
2022-09-11T05:24:26.968Z,77.36
2022-09-11T05:26:59.178Z,77.04
2022-09-11T05:29:32.483Z,77.57
2022-09-11T05:32:09.310Z,78.03
2022-09-11T05:34:37.245Z,77.57
2022-09-11T05:37:06.467Z,78.01
2022-09-11T05:39:40.613Z,78.22
2022-09-11T05:42:11.781Z,78.16
2022-09-11T05:44:43.642Z,78.12
2022-09-11T05:47:11.595Z,78.37
2022-09-11T05:49:40.599Z,78.14
2022-09-11T05:52:08.599Z,78.26
2022-09-11T05:54:36.755Z,78.94
2022-09-11T05:57:07.930Z,79.27
2022-09-11T05:59:40.153Z,79.31
2022-09-11T06:02:11.322Z,79.37
2022-09-11T06:04:47.912Z,80.29
2022-09-11T06:07:15.897Z,80.82
2022-09-11T06:09:47.910Z,80.57
2022-09-11T06:12:19.457Z,80.99
2022-09-11T06:14:50.423Z,81.02
2022-09-11T06:17:18.420Z,81.14
2022-09-11T06:19:46.715Z,80.89
2022-09-11T06:22:16.470Z,81.26
2022-09-11T06:24:47.082Z,80.79
2022-09-11T06:27:17.103Z,80.22
2022-09-11T06:29:50.503Z,80.16
2022-09-11T06:32:21.028Z,80.40
2022-09-11T06:34:49.177Z,79.88
2022-09-11T06:37:17.378Z,80.09
2022-09-11T06:39:45.392Z,79.90
2022-09-11T06:42:20.220Z,79.27
2022-09-11T06:44:50.889Z,79.29
2022-09-11T06:47:20.806Z,78.83
2022-09-11T06:49:49.504Z,78.30
2022-09-11T06:52:38.377Z,76.90
2022-09-11T06:55:23.495Z,76.64
2022-09-11T06:57:57.621Z,75.91
2022-09-11T07:00:28.347Z,75.87
2022-09-11T07:02:58.286Z,76.31
2022-09-11T07:05:27.429Z,75.48
2022-09-11T07:07:57.480Z,75.40
2022-09-11T07:10:29.438Z,74.76
2022-09-11T07:13:00.398Z,74.45
2022-09-11T07:15:28.780Z,73.88
2022-09-11T07:18:01.976Z,73.55
2022-09-11T07:20:31.391Z,72.66
2022-09-11T08:39:58.317Z,67.30
2022-09-11T08:42:27.319Z,67.51
2022-09-11T08:44:58.843Z,67.55
2022-09-11T08:47:38.302Z,67.79
2022-09-11T08:50:10.804Z,67.10
2022-09-11T08:52:45.896Z,66.15
2022-09-11T08:55:24.196Z,66.45
2022-09-11T08:58:00.626Z,66.85
2022-09-11T09:00:35.711Z,67.75
2022-09-11T09:09:15.821Z,65.95
2022-09-11T10:09:23.394Z,57.95
2022-09-11T10:11:57.728Z,58.02
2022-09-11T10:14:49.801Z,59.36
2022-09-11T10:17:22.621Z,58.53
2022-09-11T10:19:57.151Z,58.80
2022-09-11T10:22:30.706Z,58.40
2022-09-11T10:25:11.723Z,59.54
2022-09-11T10:28:02.991Z,58.18
2022-09-11T10:30:34.540Z,59.55
2022-09-11T10:33:06.298Z,56.89
2022-09-11T10:35:36.513Z,56.46
2022-09-11T10:38:17.913Z,56.37
2022-09-11T10:41:02.939Z,56.63
2022-09-11T10:43:36.485Z,57.56
2022-09-11T10:46:06.881Z,57.18
2022-09-11T10:48:35.043Z,57.69
2022-09-11T10:51:07.455Z,57.47
2022-09-11T10:53:48.591Z,57.22
2022-09-11T10:56:18.416Z,57.57
2022-09-11T10:58:52.261Z,57.57
2022-09-11T11:01:22.499Z,57.87
2022-09-11T11:03:51.057Z,57.72
2022-09-11T11:06:34.420Z,58.82
2022-09-11T11:09:30.356Z,57.87
2022-09-11T11:12:17.269Z,61.16
2022-09-11T11:15:19.979Z,58.91
2022-09-11T11:17:56.540Z,59.43
2022-09-11T11:20:34.765Z,57.88
2022-09-11T11:23:26.523Z,57.70
2022-09-11T11:26:07.101Z,54.97
2022-09-11T11:29:01.008Z,55.27
2022-09-11T11:31:44.527Z,54.96
2022-09-11T11:34:33.521Z,55.68
2022-09-11T11:37:07.836Z,55.99
2022-09-11T11:39:41.685Z,56.96
2022-09-11T16:52:17.630Z,39.75
2022-09-11T16:54:48.776Z,39.10
2022-09-11T16:57:17.089Z,39.94
2022-09-11T16:59:45.142Z,40.33
2022-09-11T17:02:13.106Z,40.62
2022-09-11T17:04:41.034Z,41.31
2022-09-11T17:07:08.948Z,41.05
2022-09-11T17:34:37.284Z,46.46
2022-09-11T17:37:05.386Z,46.50
2022-09-11T17:39:33.305Z,46.15
2022-09-11T17:42:01.869Z,47.34
2022-09-11T17:44:29.814Z,48.38
2022-09-11T17:47:02.261Z,49.41
2022-09-11T17:49:31.989Z,50.32
2022-09-11T17:52:01.265Z,49.82
2022-09-11T18:18:12.396Z,49.22
2022-09-11T18:20:40.375Z,49.16
2022-09-11T18:23:09.705Z,48.76
2022-09-11T18:25:39.804Z,48.36
2022-09-11T18:28:09.110Z,48.37
2022-09-11T18:30:41.220Z,47.94
2022-09-11T18:33:10.947Z,47.95
2022-09-11T18:35:40.481Z,46.98
2022-09-11T18:38:08.443Z,47.17
2022-09-11T18:40:36.376Z,47.12
2022-09-11T18:43:08.898Z,47.35
2022-09-11T18:45:37.258Z,47.64
2022-09-11T18:48:05.537Z,47.70
2022-09-11T18:50:33.485Z,47.49
2022-09-11T18:53:03.073Z,48.59
2022-09-11T18:55:31.030Z,48.75
2022-09-11T18:58:00.179Z,49.01
2022-09-11T19:00:28.527Z,51.88
2022-09-11T19:02:57.363Z,54.95
2022-09-11T19:05:26.314Z,55.36
2022-09-11T19:07:55.215Z,54.89
2022-09-11T19:10:24.573Z,54.51
2022-09-11T19:12:54.219Z,54.85
2022-09-11T19:15:22.180Z,54.79
2022-09-11T19:17:50.225Z,55.06
2022-09-11T19:20:19.883Z,54.98
2022-09-11T19:22:48.099Z,55.64
2022-09-11T19:25:16.124Z,55.79
2022-09-11T19:27:45.972Z,55.74
2022-09-11T19:30:16.222Z,55.99
2022-09-11T19:32:44.244Z,55.97
2022-09-11T19:35:12.148Z,57.16
2022-09-11T19:37:40.068Z,57.85
2022-09-11T19:40:08.920Z,57.65
2022-09-11T19:42:36.826Z,57.94
2022-09-11T19:45:07.200Z,57.96
2022-09-11T19:47:35.150Z,57.69
2022-09-11T19:50:03.082Z,57.71
2022-09-11T19:52:33.015Z,57.44
2022-09-11T19:55:01.148Z,57.67
2022-09-11T19:57:29.067Z,58.01
2022-09-11T19:59:56.965Z,57.87
2022-09-11T20:02:26.372Z,57.33
2022-09-11T20:04:54.266Z,57.07
2022-09-11T20:07:22.226Z,57.16
2022-09-11T20:09:50.180Z,57.31
2022-09-11T20:12:18.076Z,57.63
2022-09-11T20:14:46.055Z,57.26
2022-09-11T20:17:14.006Z,57.67
2022-09-11T20:19:44.819Z,57.66
2022-09-11T20:22:12.743Z,57.75
2022-09-11T20:24:40.622Z,57.70
2022-09-11T20:27:08.542Z,57.80
2022-09-11T20:29:38.346Z,58.15
2022-09-11T20:32:07.555Z,57.99
2022-09-11T20:34:35.467Z,58.47
2022-09-11T20:37:08.100Z,58.51
2022-09-11T20:39:38.675Z,58.83
2022-09-11T20:42:07.014Z,59.01
2022-09-11T20:44:37.025Z,59.04
2022-09-11T20:47:05.478Z,59.42
2022-09-11T20:49:33.437Z,60.00
2022-09-11T20:52:01.313Z,60.10
2022-09-11T20:54:30.604Z,60.68
2022-09-11T20:57:00.486Z,60.93
2022-09-11T20:59:28.748Z,61.59
2022-09-11T21:01:56.797Z,62.62
2022-09-11T21:04:25.291Z,62.75
2022-09-11T21:06:54.250Z,62.37
2022-09-11T21:09:22.674Z,62.49
2022-09-11T21:11:52.080Z,62.52
2022-09-11T21:14:20.485Z,62.84
2022-09-11T21:16:48.389Z,63.25
2022-09-11T21:19:16.306Z,63.14
2022-09-11T21:21:44.251Z,62.59
2022-09-11T21:24:13.808Z,62.17
2022-09-11T21:26:42.471Z,61.83
2022-09-11T21:29:14.223Z,62.35
2022-09-11T21:31:42.198Z,61.96
2022-09-11T21:34:10.745Z,62.19
2022-09-11T21:36:39.049Z,62.10
2022-09-11T21:39:07.299Z,62.25
2022-09-11T21:41:35.470Z,62.28
2022-09-11T21:44:03.921Z,62.86
2022-09-11T21:46:33.378Z,62.76
2022-09-11T21:49:01.761Z,63.15
2022-09-11T21:51:29.932Z,63.47
2022-09-11T21:54:01.530Z,62.98
2022-09-11T21:56:32.339Z,63.29
2022-09-11T21:59:00.952Z,63.18
2022-09-11T22:01:29.918Z,63.18
